sensor_id;sensor_type;location;lat;lon;timestamp;P1;durP1;ratioP1;P2;durP2;ratioP2
64868;SDS011;51349;52.424;10.840;2022-07-23T00:04:35;5.90;;;5.50;;
64868;SDS011;51349;52.424;10.840;2022-07-23T00:09:35;6.30;;;5.53;;
64868;SDS011;51349;52.424;10.840;2022-07-23T00:14:36;5.90;;;5.30;;
64868;SDS011;51349;52.424;10.840;2022-07-23T00:19:37;5.35;;;4.95;;
64868;SDS011;51349;52.424;10.840;2022-07-23T00:24:37;6.38;;;5.28;;
64868;SDS011;51349;52.424;10.840;2022-07-23T00:29:38;6.05;;;5.03;;
64868;SDS011;51349;52.424;10.840;2022-07-23T00:34:38;5.30;;;4.85;;
64868;SDS011;51349;52.424;10.840;2022-07-23T00:39:39;7.45;;;5.32;;
64868;SDS011;51349;52.424;10.840;2022-07-23T00:44:40;5.40;;;5.00;;
64868;SDS011;51349;52.424;10.840;2022-07-23T00:49:40;5.88;;;5.22;;
64868;SDS011;51349;52.424;10.840;2022-07-23T00:54:41;5.20;;;4.80;;
64868;SDS011;51349;52.424;10.840;2022-07-23T00:59:42;5.78;;;5.28;;
64868;SDS011;51349;52.424;10.840;2022-07-23T01:04:42;5.70;;;5.20;;
64868;SDS011;51349;52.424;10.840;2022-07-23T01:09:44;7.18;;;5.70;;
64868;SDS011;51349;52.424;10.840;2022-07-23T01:14:45;5.70;;;5.20;;
64868;SDS011;51349;52.424;10.840;2022-07-23T01:19:57;5.78;;;5.28;;
64868;SDS011;51349;52.424;10.840;2022-07-23T01:24:57;5.35;;;4.90;;
64868;SDS011;51349;52.424;10.840;2022-07-23T01:29:59;7.22;;;5.40;;
64868;SDS011;51349;52.424;10.840;2022-07-23T01:35:02;5.95;;;5.40;;
64868;SDS011;51349;52.424;10.840;2022-07-23T01:40:03;6.40;;;5.35;;
64868;SDS011;51349;52.424;10.840;2022-07-23T01:45:05;7.00;;;5.95;;
64868;SDS011;51349;52.424;10.840;2022-07-23T01:50:06;7.05;;;5.82;;
64868;SDS011;51349;52.424;10.840;2022-07-23T01:55:07;5.35;;;4.85;;
64868;SDS011;51349;52.424;10.840;2022-07-23T02:00:08;6.68;;;5.93;;
64868;SDS011;51349;52.424;10.840;2022-07-23T02:05:09;6.03;;;5.40;;
64868;SDS011;51349;52.424;10.840;2022-07-23T02:10:12;6.05;;;5.53;;
64868;SDS011;51349;52.424;10.840;2022-07-23T02:15:12;5.93;;;5.35;;
64868;SDS011;51349;52.424;10.840;2022-07-23T02:20:13;5.38;;;4.93;;
64868;SDS011;51349;52.424;10.840;2022-07-23T02:25:14;5.70;;;5.20;;
64868;SDS011;51349;52.424;10.840;2022-07-23T02:30:15;5.90;;;5.38;;
64868;SDS011;51349;52.424;10.840;2022-07-23T02:35:15;6.55;;;5.38;;
64868;SDS011;51349;52.424;10.840;2022-07-23T02:40:16;5.57;;;5.10;;
64868;SDS011;51349;52.424;10.840;2022-07-23T02:45:18;5.75;;;5.22;;
64868;SDS011;51349;52.424;10.840;2022-07-23T02:50:18;5.57;;;5.18;;
64868;SDS011;51349;52.424;10.840;2022-07-23T02:55:19;6.13;;;5.60;;
64868;SDS011;51349;52.424;10.840;2022-07-23T03:00:20;6.22;;;5.63;;
64868;SDS011;51349;52.424;10.840;2022-07-23T03:05:20;6.13;;;5.63;;
64868;SDS011;51349;52.424;10.840;2022-07-23T03:10:21;6.57;;;5.97;;
64868;SDS011;51349;52.424;10.840;2022-07-23T03:15:21;6.40;;;5.90;;
64868;SDS011;51349;52.424;10.840;2022-07-23T03:20:22;5.97;;;5.47;;
64868;SDS011;51349;52.424;10.840;2022-07-23T03:25:23;7.53;;;6.25;;
64868;SDS011;51349;52.424;10.840;2022-07-23T03:30:24;5.97;;;5.47;;
64868;SDS011;51349;52.424;10.840;2022-07-23T03:35:24;6.03;;;5.53;;
64868;SDS011;51349;52.424;10.840;2022-07-23T03:40:25;7.65;;;6.72;;
64868;SDS011;51349;52.424;10.840;2022-07-23T03:45:25;7.65;;;6.95;;
64868;SDS011;51349;52.424;10.840;2022-07-23T03:50:26;8.18;;;7.38;;
64868;SDS011;51349;52.424;10.840;2022-07-23T03:55:27;7.82;;;6.70;;
64868;SDS011;51349;52.424;10.840;2022-07-23T04:00:28;8.10;;;7.40;;
64868;SDS011;51349;52.424;10.840;2022-07-23T04:05:28;8.60;;;7.82;;
64868;SDS011;51349;52.424;10.840;2022-07-23T04:10:29;8.70;;;7.80;;
64868;SDS011;51349;52.424;10.840;2022-07-23T04:15:29;10.15;;;8.07;;
64868;SDS011;51349;52.424;10.840;2022-07-23T04:20:30;9.43;;;7.47;;
64868;SDS011;51349;52.424;10.840;2022-07-23T04:25:31;8.43;;;7.40;;
64868;SDS011;51349;52.424;10.840;2022-07-23T04:30:31;8.82;;;7.50;;
64868;SDS011;51349;52.424;10.840;2022-07-23T04:35:32;8.60;;;6.88;;
64868;SDS011;51349;52.424;10.840;2022-07-23T04:40:34;7.63;;;7.00;;
64868;SDS011;51349;52.424;10.840;2022-07-23T04:45:34;7.65;;;7.05;;
64868;SDS011;51349;52.424;10.840;2022-07-23T04:50:35;8.18;;;7.47;;
64868;SDS011;51349;52.424;10.840;2022-07-23T04:55:36;7.95;;;7.22;;
64868;SDS011;51349;52.424;10.840;2022-07-23T05:00:36;8.98;;;7.75;;
64868;SDS011;51349;52.424;10.840;2022-07-23T05:05:37;7.78;;;7.07;;
64868;SDS011;51349;52.424;10.840;2022-07-23T05:10:38;7.10;;;6.45;;
64868;SDS011;51349;52.424;10.840;2022-07-23T05:15:38;8.20;;;7.43;;
64868;SDS011;51349;52.424;10.840;2022-07-23T05:20:39;8.45;;;7.45;;
64868;SDS011;51349;52.424;10.840;2022-07-23T05:25:39;8.25;;;7.40;;
64868;SDS011;51349;52.424;10.840;2022-07-23T05:30:40;8.00;;;7.18;;
64868;SDS011;51349;52.424;10.840;2022-07-23T05:35:41;8.90;;;7.95;;
64868;SDS011;51349;52.424;10.840;2022-07-23T05:40:41;6.97;;;6.38;;
64868;SDS011;51349;52.424;10.840;2022-07-23T05:45:42;6.78;;;6.15;;
64868;SDS011;51349;52.424;10.840;2022-07-23T05:50:42;7.78;;;6.05;;
64868;SDS011;51349;52.424;10.840;2022-07-23T05:55:43;7.15;;;5.72;;
64868;SDS011;51349;52.424;10.840;2022-07-23T06:00:44;6.80;;;6.03;;
64868;SDS011;51349;52.424;10.840;2022-07-23T06:05:45;8.77;;;5.93;;
64868;SDS011;51349;52.424;10.840;2022-07-23T06:10:46;7.63;;;6.25;;
64868;SDS011;51349;52.424;10.840;2022-07-23T06:15:46;6.90;;;6.00;;
64868;SDS011;51349;52.424;10.840;2022-07-23T06:20:47;5.95;;;5.35;;
64868;SDS011;51349;52.424;10.840;2022-07-23T06:25:48;6.05;;;5.55;;
64868;SDS011;51349;52.424;10.840;2022-07-23T06:30:48;5.97;;;5.25;;
64868;SDS011;51349;52.424;10.840;2022-07-23T06:35:49;5.65;;;5.15;;
64868;SDS011;51349;52.424;10.840;2022-07-23T06:40:49;5.72;;;4.88;;
64868;SDS011;51349;52.424;10.840;2022-07-23T06:45:50;5.28;;;4.78;;
64868;SDS011;51349;52.424;10.840;2022-07-23T06:50:50;5.00;;;4.50;;
64868;SDS011;51349;52.424;10.840;2022-07-23T06:55:52;5.05;;;4.55;;
64868;SDS011;51349;52.424;10.840;2022-07-23T07:00:53;5.65;;;5.15;;
64868;SDS011;51349;52.424;10.840;2022-07-23T07:05:53;5.97;;;4.93;;
64868;SDS011;51349;52.424;10.840;2022-07-23T07:10:54;6.05;;;4.82;;
64868;SDS011;51349;52.424;10.840;2022-07-23T07:15:55;5.35;;;4.03;;
64868;SDS011;51349;52.424;10.840;2022-07-23T07:20:56;5.70;;;4.60;;
64868;SDS011;51349;52.424;10.840;2022-07-23T07:25:57;5.32;;;3.83;;
64868;SDS011;51349;52.424;10.840;2022-07-23T07:30:58;4.32;;;3.95;;
64868;SDS011;51349;52.424;10.840;2022-07-23T07:35:58;4.75;;;3.60;;
64868;SDS011;51349;52.424;10.840;2022-07-23T07:41:00;4.90;;;4.40;;
64868;SDS011;51349;52.424;10.840;2022-07-23T07:46:02;5.25;;;4.60;;
64868;SDS011;51349;52.424;10.840;2022-07-23T07:51:03;5.15;;;4.65;;
64868;SDS011;51349;52.424;10.840;2022-07-23T07:56:04;6.28;;;4.60;;
64868;SDS011;51349;52.424;10.840;2022-07-23T08:01:05;5.85;;;4.22;;
64868;SDS011;51349;52.424;10.840;2022-07-23T08:06:06;5.38;;;3.80;;
64868;SDS011;51349;52.424;10.840;2022-07-23T08:11:07;7.03;;;3.58;;
64868;SDS011;51349;52.424;10.840;2022-07-23T08:16:08;4.22;;;3.15;;
64868;SDS011;51349;52.424;10.840;2022-07-23T08:21:08;3.15;;;2.95;;
64868;SDS011;51349;52.424;10.840;2022-07-23T08:26:09;3.03;;;2.50;;
64868;SDS011;51349;52.424;10.840;2022-07-23T08:31:10;4.00;;;2.60;;
64868;SDS011;51349;52.424;10.840;2022-07-23T08:36:11;2.92;;;2.63;;
64868;SDS011;51349;52.424;10.840;2022-07-23T08:41:12;2.67;;;2.00;;
64868;SDS011;51349;52.424;10.840;2022-07-23T08:46:13;3.45;;;2.30;;
64868;SDS011;51349;52.424;10.840;2022-07-23T08:51:13;3.78;;;2.30;;
64868;SDS011;51349;52.424;10.840;2022-07-23T08:56:14;2.35;;;1.90;;
64868;SDS011;51349;52.424;10.840;2022-07-23T09:01:15;1.95;;;1.85;;
64868;SDS011;51349;52.424;10.840;2022-07-23T09:06:16;2.53;;;2.20;;
64868;SDS011;51349;52.424;10.840;2022-07-23T09:11:16;2.03;;;1.60;;
64868;SDS011;51349;52.424;10.840;2022-07-23T09:16:30;2.50;;;1.90;;
64868;SDS011;51349;52.424;10.840;2022-07-23T09:26:44;2.75;;;1.90;;
64868;SDS011;51349;52.424;10.840;2022-07-23T09:31:50;1.92;;;1.80;;
64868;SDS011;51349;52.424;10.840;2022-07-23T09:37:08;2.38;;;1.80;;
64868;SDS011;51349;52.424;10.840;2022-07-23T09:47:23;2.05;;;1.90;;
64868;SDS011;51349;52.424;10.840;2022-07-23T09:52:28;2.22;;;1.60;;
64868;SDS011;51349;52.424;10.840;2022-07-23T09:57:31;2.05;;;1.77;;
64868;SDS011;51349;52.424;10.840;2022-07-23T10:02:32;2.38;;;1.70;;
64868;SDS011;51349;52.424;10.840;2022-07-23T10:07:35;4.55;;;1.90;;
64868;SDS011;51349;52.424;10.840;2022-07-23T10:12:39;2.67;;;1.55;;
64868;SDS011;51349;52.424;10.840;2022-07-23T10:17:52;2.28;;;1.60;;
64868;SDS011;51349;52.424;10.840;2022-07-23T10:33:37;1.35;;;1.30;;
64868;SDS011;51349;52.424;10.840;2022-07-23T10:54:30;1.50;;;1.40;;
64868;SDS011;51349;52.424;10.840;2022-07-23T10:59:32;1.50;;;1.40;;
64868;SDS011;51349;52.424;10.840;2022-07-23T11:05:18;2.13;;;1.50;;
64868;SDS011;51349;52.424;10.840;2022-07-23T11:10:36;1.67;;;1.58;;
64868;SDS011;51349;52.424;10.840;2022-07-23T11:21:26;1.40;;;1.30;;
64868;SDS011;51349;52.424;10.840;2022-07-23T11:31:50;1.77;;;1.67;;
64868;SDS011;51349;52.424;10.840;2022-07-23T11:37:03;1.83;;;1.70;;
64868;SDS011;51349;52.424;10.840;2022-07-23T11:42:06;2.55;;;1.80;;
64868;SDS011;51349;52.424;10.840;2022-07-23T11:47:08;1.60;;;1.50;;
64868;SDS011;51349;52.424;10.840;2022-07-23T11:52:12;1.42;;;1.33;;
64868;SDS011;51349;52.424;10.840;2022-07-23T11:57:14;2.67;;;1.77;;
64868;SDS011;51349;52.424;10.840;2022-07-23T12:02:15;1.67;;;1.40;;
64868;SDS011;51349;52.424;10.840;2022-07-23T12:12:34;2.60;;;1.50;;
64868;SDS011;51349;52.424;10.840;2022-07-23T12:17:40;2.38;;;1.70;;
64868;SDS011;51349;52.424;10.840;2022-07-23T12:22:44;3.67;;;1.63;;
64868;SDS011;51349;52.424;10.840;2022-07-23T12:27:57;1.45;;;1.30;;
64868;SDS011;51349;52.424;10.840;2022-07-23T12:33:02;1.45;;;1.35;;
64868;SDS011;51349;52.424;10.840;2022-07-23T12:38:05;1.40;;;1.30;;
64868;SDS011;51349;52.424;10.840;2022-07-23T12:43:08;2.20;;;1.45;;
64868;SDS011;51349;52.424;10.840;2022-07-23T12:48:21;1.98;;;1.17;;
64868;SDS011;51349;52.424;10.840;2022-07-23T12:53:28;1.45;;;1.27;;
64868;SDS011;51349;52.424;10.840;2022-07-23T12:58:53;1.40;;;1.30;;
64868;SDS011;51349;52.424;10.840;2022-07-23T13:04:19;1.58;;;1.40;;
64868;SDS011;51349;52.424;10.840;2022-07-23T13:09:23;1.30;;;1.20;;
64868;SDS011;51349;52.424;10.840;2022-07-23T13:14:26;1.30;;;1.20;;
64868;SDS011;51349;52.424;10.840;2022-07-23T13:19:27;1.50;;;1.00;;
64868;SDS011;51349;52.424;10.840;2022-07-23T13:24:28;1.85;;;1.52;;
64868;SDS011;51349;52.424;10.840;2022-07-23T13:29:28;1.85;;;1.60;;
64868;SDS011;51349;52.424;10.840;2022-07-23T13:34:29;2.55;;;1.40;;
64868;SDS011;51349;52.424;10.840;2022-07-23T13:39:30;3.97;;;1.30;;
64868;SDS011;51349;52.424;10.840;2022-07-23T13:44:30;1.20;;;1.20;;
64868;SDS011;51349;52.424;10.840;2022-07-23T13:49:31;3.05;;;1.20;;
64868;SDS011;51349;52.424;10.840;2022-07-23T13:54:35;1.10;;;1.10;;
64868;SDS011;51349;52.424;10.840;2022-07-23T13:59:36;1.20;;;1.10;;
64868;SDS011;51349;52.424;10.840;2022-07-23T14:04:36;1.15;;;1.02;;
64868;SDS011;51349;52.424;10.840;2022-07-23T14:09:37;1.17;;;1.08;;
64868;SDS011;51349;52.424;10.840;2022-07-23T14:14:39;1.13;;;1.02;;
64868;SDS011;51349;52.424;10.840;2022-07-23T14:19:39;1.15;;;1.10;;
64868;SDS011;51349;52.424;10.840;2022-07-23T14:24:40;0.90;;;0.90;;
64868;SDS011;51349;52.424;10.840;2022-07-23T14:29:41;1.08;;;1.00;;
64868;SDS011;51349;52.424;10.840;2022-07-23T14:34:41;1.55;;;1.10;;
64868;SDS011;51349;52.424;10.840;2022-07-23T14:39:43;1.00;;;0.90;;
64868;SDS011;51349;52.424;10.840;2022-07-23T14:44:44;0.82;;;0.82;;
64868;SDS011;51349;52.424;10.840;2022-07-23T14:49:46;1.02;;;1.02;;
64868;SDS011;51349;52.424;10.840;2022-07-23T14:54:49;1.10;;;0.90;;
64868;SDS011;51349;52.424;10.840;2022-07-23T14:59:50;1.95;;;1.00;;
64868;SDS011;51349;52.424;10.840;2022-07-23T15:04:51;2.33;;;1.10;;
64868;SDS011;51349;52.424;10.840;2022-07-23T15:09:52;1.00;;;1.00;;
64868;SDS011;51349;52.424;10.840;2022-07-23T15:14:53;1.58;;;1.10;;
64868;SDS011;51349;52.424;10.840;2022-07-23T15:19:54;1.02;;;1.00;;
64868;SDS011;51349;52.424;10.840;2022-07-23T15:24:56;1.33;;;1.30;;
64868;SDS011;51349;52.424;10.840;2022-07-23T15:29:56;1.65;;;1.55;;
64868;SDS011;51349;52.424;10.840;2022-07-23T15:34:57;2.13;;;1.90;;
64868;SDS011;51349;52.424;10.840;2022-07-23T15:39:58;1.20;;;1.02;;
64868;SDS011;51349;52.424;10.840;2022-07-23T15:44:58;3.25;;;1.40;;
64868;SDS011;51349;52.424;10.840;2022-07-23T15:49:59;1.40;;;1.30;;
64868;SDS011;51349;52.424;10.840;2022-07-23T15:55:00;2.05;;;1.52;;
64868;SDS011;51349;52.424;10.840;2022-07-23T16:00:04;1.55;;;1.05;;
64868;SDS011;51349;52.424;10.840;2022-07-23T16:05:06;1.05;;;1.05;;
64868;SDS011;51349;52.424;10.840;2022-07-23T16:10:07;2.88;;;1.10;;
64868;SDS011;51349;52.424;10.840;2022-07-23T16:15:10;1.42;;;0.98;;
64868;SDS011;51349;52.424;10.840;2022-07-23T16:20:10;3.03;;;1.08;;
64868;SDS011;51349;52.424;10.840;2022-07-23T16:25:12;2.83;;;1.10;;
64868;SDS011;51349;52.424;10.840;2022-07-23T16:30:13;1.30;;;1.20;;
64868;SDS011;51349;52.424;10.840;2022-07-23T16:35:14;1.10;;;1.05;;
64868;SDS011;51349;52.424;10.840;2022-07-23T16:40:14;2.78;;;1.65;;
64868;SDS011;51349;52.424;10.840;2022-07-23T16:45:15;1.23;;;1.02;;
64868;SDS011;51349;52.424;10.840;2022-07-23T16:50:16;1.30;;;0.98;;
64868;SDS011;51349;52.424;10.840;2022-07-23T16:55:17;0.90;;;0.90;;
64868;SDS011;51349;52.424;10.840;2022-07-23T17:00:17;2.22;;;2.03;;
64868;SDS011;51349;52.424;10.840;2022-07-23T17:05:18;0.90;;;0.90;;
64868;SDS011;51349;52.424;10.840;2022-07-23T17:10:19;1.85;;;1.00;;
64868;SDS011;51349;52.424;10.840;2022-07-23T17:15:20;1.23;;;0.90;;
64868;SDS011;51349;52.424;10.840;2022-07-23T17:20:21;2.00;;;1.13;;
64868;SDS011;51349;52.424;10.840;2022-07-23T17:25:25;0.70;;;0.70;;
64868;SDS011;51349;52.424;10.840;2022-07-23T17:30:26;1.10;;;1.10;;
64868;SDS011;51349;52.424;10.840;2022-07-23T17:35:27;0.93;;;0.80;;
64868;SDS011;51349;52.424;10.840;2022-07-23T17:40:28;0.80;;;0.80;;
64868;SDS011;51349;52.424;10.840;2022-07-23T17:45:34;0.80;;;0.80;;
64868;SDS011;51349;52.424;10.840;2022-07-23T17:50:35;0.80;;;0.80;;
64868;SDS011;51349;52.424;10.840;2022-07-23T17:55:36;0.85;;;0.85;;
64868;SDS011;51349;52.424;10.840;2022-07-23T18:00:36;0.70;;;0.70;;
64868;SDS011;51349;52.424;10.840;2022-07-23T18:05:37;0.80;;;0.80;;
64868;SDS011;51349;52.424;10.840;2022-07-23T18:10:39;1.02;;;0.90;;
64868;SDS011;51349;52.424;10.840;2022-07-23T18:15:39;0.90;;;0.88;;
64868;SDS011;51349;52.424;10.840;2022-07-23T18:20:40;1.30;;;0.80;;
64868;SDS011;51349;52.424;10.840;2022-07-23T18:25:41;0.75;;;0.75;;
64868;SDS011;51349;52.424;10.840;2022-07-23T18:30:57;0.80;;;0.70;;
64868;SDS011;51349;52.424;10.840;2022-07-23T18:35:58;1.70;;;0.93;;
64868;SDS011;51349;52.424;10.840;2022-07-23T18:40:59;1.15;;;0.80;;
64868;SDS011;51349;52.424;10.840;2022-07-23T18:46:00;0.85;;;0.80;;
64868;SDS011;51349;52.424;10.840;2022-07-23T18:51:01;1.58;;;0.90;;
64868;SDS011;51349;52.424;10.840;2022-07-23T18:56:03;1.15;;;0.93;;
64868;SDS011;51349;52.424;10.840;2022-07-23T19:01:04;0.82;;;0.82;;
64868;SDS011;51349;52.424;10.840;2022-07-23T19:06:06;0.80;;;0.80;;
64868;SDS011;51349;52.424;10.840;2022-07-23T19:11:07;1.45;;;1.08;;
64868;SDS011;51349;52.424;10.840;2022-07-23T19:16:07;0.90;;;0.90;;
64868;SDS011;51349;52.424;10.840;2022-07-23T19:21:08;0.98;;;0.98;;
64868;SDS011;51349;52.424;10.840;2022-07-23T19:26:09;0.90;;;0.90;;
64868;SDS011;51349;52.424;10.840;2022-07-23T19:31:10;1.02;;;1.02;;
64868;SDS011;51349;52.424;10.840;2022-07-23T19:36:10;1.45;;;0.80;;
64868;SDS011;51349;52.424;10.840;2022-07-23T19:41:11;1.80;;;0.80;;
64868;SDS011;51349;52.424;10.840;2022-07-23T19:46:12;0.98;;;0.93;;
64868;SDS011;51349;52.424;10.840;2022-07-23T19:51:12;0.80;;;0.80;;
64868;SDS011;51349;52.424;10.840;2022-07-23T19:56:13;0.98;;;0.98;;
64868;SDS011;51349;52.424;10.840;2022-07-23T20:01:14;1.10;;;1.00;;
64868;SDS011;51349;52.424;10.840;2022-07-23T20:06:15;2.28;;;1.00;;
64868;SDS011;51349;52.424;10.840;2022-07-23T20:11:16;1.08;;;1.08;;
64868;SDS011;51349;52.424;10.840;2022-07-23T20:16:16;1.95;;;1.40;;
64868;SDS011;51349;52.424;10.840;2022-07-23T20:21:17;1.38;;;1.35;;
64868;SDS011;51349;52.424;10.840;2022-07-23T20:26:18;1.60;;;1.08;;
64868;SDS011;51349;52.424;10.840;2022-07-23T20:31:19;1.10;;;1.10;;
64868;SDS011;51349;52.424;10.840;2022-07-23T20:36:19;1.50;;;1.40;;
64868;SDS011;51349;52.424;10.840;2022-07-23T20:41:20;1.60;;;1.50;;
64868;SDS011;51349;52.424;10.840;2022-07-23T20:46:21;1.50;;;1.40;;
64868;SDS011;51349;52.424;10.840;2022-07-23T20:51:21;1.40;;;1.30;;
64868;SDS011;51349;52.424;10.840;2022-07-23T20:56:22;1.10;;;1.10;;
64868;SDS011;51349;52.424;10.840;2022-07-23T21:01:23;2.03;;;1.17;;
64868;SDS011;51349;52.424;10.840;2022-07-23T21:06:23;1.25;;;1.25;;
64868;SDS011;51349;52.424;10.840;2022-07-23T21:11:24;2.00;;;1.30;;
64868;SDS011;51349;52.424;10.840;2022-07-23T21:16:25;1.30;;;1.30;;
64868;SDS011;51349;52.424;10.840;2022-07-23T21:21:25;1.58;;;1.30;;
64868;SDS011;51349;52.424;10.840;2022-07-23T21:26:26;1.30;;;1.30;;
64868;SDS011;51349;52.424;10.840;2022-07-23T21:31:27;3.67;;;1.60;;
64868;SDS011;51349;52.424;10.840;2022-07-23T21:36:27;2.35;;;1.60;;
64868;SDS011;51349;52.424;10.840;2022-07-23T21:41:28;2.10;;;1.88;;
64868;SDS011;51349;52.424;10.840;2022-07-23T21:46:31;2.40;;;1.80;;
64868;SDS011;51349;52.424;10.840;2022-07-23T21:51:33;1.70;;;1.60;;
64868;SDS011;51349;52.424;10.840;2022-07-23T21:56:35;1.90;;;1.80;;
64868;SDS011;51349;52.424;10.840;2022-07-23T22:01:36;2.15;;;1.80;;
64868;SDS011;51349;52.424;10.840;2022-07-23T22:06:36;2.65;;;2.00;;
64868;SDS011;51349;52.424;10.840;2022-07-23T22:11:37;2.10;;;2.00;;
64868;SDS011;51349;52.424;10.840;2022-07-23T22:16:38;2.10;;;2.00;;
64868;SDS011;51349;52.424;10.840;2022-07-23T22:21:38;1.98;;;1.80;;
64868;SDS011;51349;52.424;10.840;2022-07-23T22:26:39;2.22;;;1.63;;
64868;SDS011;51349;52.424;10.840;2022-07-23T22:31:40;1.92;;;1.83;;
64868;SDS011;51349;52.424;10.840;2022-07-23T22:36:40;2.05;;;1.95;;
64868;SDS011;51349;52.424;10.840;2022-07-23T22:41:41;1.70;;;1.60;;
64868;SDS011;51349;52.424;10.840;2022-07-23T22:46:41;2.05;;;1.55;;
64868;SDS011;51349;52.424;10.840;2022-07-23T22:51:42;2.40;;;1.60;;
64868;SDS011;51349;52.424;10.840;2022-07-23T22:56:43;1.88;;;1.77;;
64868;SDS011;51349;52.424;10.840;2022-07-23T23:01:43;1.65;;;1.55;;
64868;SDS011;51349;52.424;10.840;2022-07-23T23:06:44;1.77;;;1.67;;
64868;SDS011;51349;52.424;10.840;2022-07-23T23:11:44;3.42;;;1.70;;
64868;SDS011;51349;52.424;10.840;2022-07-23T23:16:45;1.70;;;1.60;;
64868;SDS011;51349;52.424;10.840;2022-07-23T23:21:46;1.88;;;1.77;;
64868;SDS011;51349;52.424;10.840;2022-07-23T23:26:46;1.70;;;1.60;;
64868;SDS011;51349;52.424;10.840;2022-07-23T23:31:47;1.80;;;1.70;;
64868;SDS011;51349;52.424;10.840;2022-07-23T23:36:48;1.52;;;1.45;;
64868;SDS011;51349;52.424;10.840;2022-07-23T23:41:48;1.70;;;1.60;;
64868;SDS011;51349;52.424;10.840;2022-07-23T23:46:49;1.50;;;1.40;;
64868;SDS011;51349;52.424;10.840;2022-07-23T23:51:50;1.70;;;1.60;;
64868;SDS011;51349;52.424;10.840;2022-07-23T23:56:51;1.98;;;1.73;;
